Time;durP1;ratioP1;P1;durP2;ratioP2;P2;SDS_P1;SDS_P2;PMS_P1;PMS_P2;Temp;Humidity;BMP_temperature;BMP_pressure;BME280_temperature;BME280_humidity;BME280_pressure;Samples;Min_cycle;Max_cycle;Signal;HPM_P1;HPM_P2
2023/05/24 00:01:55;;;;;;;20.00;4.20;;;10.10;99.90;;;;;;5082064;28;20220;-44
2023/05/24 00:04:23;;;;;;;16.80;5.73;;;10.10;99.90;;;;;;5085068;28;20783;-45
2023/05/24 00:06:53;;;;;;;16.20;4.80;;;10.10;99.90;;;;;;5101696;28;20668;-45
2023/05/24 00:09:21;;;;;;;29.43;5.50;;;10.10;99.90;;;;;;5096797;28;20254;-46
2023/05/24 00:11:49;;;;;;;17.40;4.50;;;10.10;99.90;;;;;;5100410;28;20196;-46
2023/05/24 00:14:16;;;;;;;18.00;4.83;;;10.10;99.90;;;;;;5086786;28;20213;-46
2023/05/24 00:16:45;;;;;;;19.00;4.50;;;10.10;99.90;;;;;;5092661;28;20201;-44
2023/05/24 00:19:17;;;;;;;20.33;5.03;;;10.10;99.90;;;;;;5071784;28;20202;-45
2023/05/24 00:21:44;;;;;;;29.60;5.43;;;10.00;99.90;;;;;;5102511;28;20205;-45
2023/05/24 00:24:11;;;;;;;26.47;6.63;;;10.00;99.90;;;;;;5102382;28;20269;-45
2023/05/24 00:26:39;;;;;;;22.70;5.90;;;10.10;99.90;;;;;;5097156;28;20193;-46
2023/05/24 00:29:07;;;;;;;22.70;5.13;;;10.10;99.90;;;;;;5094799;28;20658;-45
2023/05/24 00:31:34;;;;;;;22.80;4.77;;;10.10;99.90;;;;;;5083821;28;20209;-44
2023/05/24 00:34:01;;;;;;;14.80;4.90;;;10.10;99.90;;;;;;5074809;28;20697;-47
2023/05/24 00:36:28;;;;;;;22.23;4.83;;;10.10;99.90;;;;;;5099403;28;20189;-48
2023/05/24 00:38:55;;;;;;;27.40;5.73;;;10.10;99.90;;;;;;5103359;28;20186;-50
2023/05/24 00:41:22;;;;;;;17.57;5.17;;;10.10;99.90;;;;;;5092355;28;20195;-44
2023/05/24 00:43:49;;;;;;;20.97;4.90;;;10.10;99.90;;;;;;5097985;28;20209;-49
2023/05/24 00:46:21;;;;;;;19.77;5.33;;;10.10;99.90;;;;;;5091365;28;20275;-46
2023/05/24 00:48:49;;;;;;;25.40;5.37;;;10.10;99.90;;;;;;5085189;28;20209;-44
2023/05/24 00:51:17;;;;;;;21.73;5.43;;;10.10;99.90;;;;;;5081635;28;20685;-44
2023/05/24 00:53:47;;;;;;;28.23;5.63;;;10.10;99.90;;;;;;5099643;28;20312;-44
2023/05/24 00:56:15;;;;;;;24.30;4.80;;;10.10;99.90;;;;;;5092551;28;20198;-43
2023/05/24 00:58:43;;;;;;;16.80;4.63;;;10.10;99.90;;;;;;5099727;28;20212;-47
2023/05/24 01:01:10;;;;;;;21.53;4.90;;;10.10;99.90;;;;;;5099233;28;20196;-48
2023/05/24 01:03:38;;;;;;;19.60;4.60;;;10.20;99.90;;;;;;5087907;28;20225;-47
2023/05/24 01:06:08;;;;;;;26.07;5.07;;;10.10;99.90;;;;;;5083248;28;20220;-45
2023/05/24 01:08:47;;;;;;;25.70;5.17;;;10.20;99.90;;;;;;5091549;28;20246;-46
2023/05/24 01:11:26;;;;;;;22.83;5.40;;;10.20;99.90;;;;;;5075378;28;20198;-44
2023/05/24 01:14:03;;;;;;;19.47;4.73;;;10.20;99.90;;;;;;5099986;28;20215;-44
2023/05/24 01:16:45;;;;;;;17.60;5.07;;;10.20;99.90;;;;;;5100793;28;20189;-46
2023/05/24 01:19:37;;;;;;;25.10;5.67;;;10.20;99.90;;;;;;5071242;28;20221;-44
2023/05/24 01:22:13;;;;;;;24.03;5.83;;;10.20;99.90;;;;;;5073551;28;20220;-45
2023/05/24 01:24:53;;;;;;;20.43;5.47;;;10.20;99.90;;;;;;5093693;28;20245;-43
2023/05/24 01:27:23;;;;;;;21.57;5.13;;;10.20;99.90;;;;;;5099371;28;20364;-44
2023/05/24 01:29:52;;;;;;;21.57;4.97;;;10.20;99.90;;;;;;5103459;28;20197;-44
2023/05/24 01:32:20;;;;;;;22.17;4.73;;;10.20;99.90;;;;;;5103150;28;20239;-46
2023/05/24 01:34:46;;;;;;;24.13;4.90;;;10.20;99.90;;;;;;5087947;28;20732;-47
2023/05/24 01:37:16;;;;;;;25.63;4.90;;;10.20;99.90;;;;;;5076322;28;20201;-45
2023/05/24 01:39:43;;;;;;;31.57;6.17;;;10.20;99.90;;;;;;5102660;28;20193;-43
2023/05/24 01:42:20;;;;;;;22.97;5.43;;;10.20;99.90;;;;;;5101673;28;20890;-43
2023/05/24 01:45:16;;;;;;;21.73;5.17;;;10.20;99.90;;;;;;5102841;28;20302;-47
2023/05/24 01:47:58;;;;;;;24.20;5.77;;;10.20;99.90;;;;;;5104404;28;20292;-45
2023/05/24 01:50:32;;;;;;;23.03;5.20;;;10.10;99.90;;;;;;5085498;28;20346;-48
2023/05/24 01:53:04;;;;;;;25.00;5.07;;;10.20;99.90;;;;;;5080235;28;20663;-47
2023/05/24 01:55:34;;;;;;;29.80;5.50;;;10.20;99.90;;;;;;5104393;28;20193;-45
2023/05/24 01:58:04;;;;;;;26.57;5.53;;;10.20;99.90;;;;;;5103999;28;20215;-46
2023/05/24 02:00:34;;;;;;;19.77;5.33;;;10.20;99.90;;;;;;5104774;28;20190;-46
2023/05/24 02:03:02;;;;;;;21.97;5.23;;;10.20;99.90;;;;;;5100583;28;20269;-44
2023/05/24 02:05:29;;;;;;;20.80;5.33;;;10.20;99.90;;;;;;5088986;28;20495;-46
2023/05/24 02:07:55;;;;;;;21.23;5.60;;;10.20;99.90;;;;;;5062551;28;20206;-43
2023/05/24 02:10:23;;;;;;;16.70;4.90;;;10.20;99.90;;;;;;5102949;28;20212;-45
2023/05/24 02:12:51;;;;;;;20.57;5.30;;;10.20;99.90;;;;;;5106167;28;20186;-43
2023/05/24 02:15:17;;;;;;;16.87;4.60;;;10.20;99.90;;;;;;5103159;28;20918;-46
2023/05/24 02:17:46;;;;;;;21.60;5.40;;;10.20;99.90;;;;;;5083341;28;20216;-48
2023/05/24 02:20:13;;;;;;;28.00;7.07;;;10.20;99.90;;;;;;5086534;28;20663;-46
2023/05/24 02:22:40;;;;;;;22.80;5.33;;;10.20;99.90;;;;;;5080883;28;20213;-47
2023/05/24 02:25:08;;;;;;;15.73;4.97;;;10.20;99.90;;;;;;5098079;28;20213;-44
2023/05/24 02:27:35;;;;;;;17.17;5.33;;;10.20;99.90;;;;;;5104753;28;20247;-45
2023/05/24 02:30:02;;;;;;;19.97;4.97;;;10.20;99.90;;;;;;5099940;28;20272;-46
2023/05/24 02:32:30;;;;;;;21.00;5.87;;;10.20;99.90;;;;;;5096758;28;20254;-45
2023/05/24 02:35:00;;;;;;;29.43;5.53;;;10.30;99.90;;;;;;5090390;28;20228;-45
2023/05/24 02:37:27;;;;;;;20.73;4.27;;;10.30;99.90;;;;;;5105704;28;20193;-44
2023/05/24 02:39:54;;;;;;;21.10;4.23;;;10.30;99.90;;;;;;5068995;28;20189;-45
2023/05/24 02:42:21;;;;;;;24.57;4.97;;;10.30;99.90;;;;;;5105480;28;20197;-47
2023/05/24 02:44:51;;;;;;;24.27;4.70;;;10.30;99.90;;;;;;5097683;28;20206;-46
2023/05/24 02:47:18;;;;;;;24.70;5.60;;;10.30;99.90;;;;;;5096402;28;20636;-44
2023/05/24 02:49:45;;;;;;;17.47;4.87;;;10.30;99.90;;;;;;5101419;28;20201;-45
2023/05/24 02:52:14;;;;;;;19.73;4.90;;;10.30;99.90;;;;;;5094085;28;20217;-44
2023/05/24 02:54:42;;;;;;;21.77;5.43;;;10.40;99.90;;;;;;5081296;28;20403;-47
2023/05/24 02:57:09;;;;;;;19.90;5.07;;;10.40;99.90;;;;;;5102988;28;20205;-46
2023/05/24 02:59:37;;;;;;;20.27;4.87;;;10.30;99.90;;;;;;5094562;28;20198;-45
2023/05/24 03:02:04;;;;;;;17.83;5.17;;;10.40;99.90;;;;;;5097641;28;20208;-49
2023/05/24 03:04:32;;;;;;;21.60;4.93;;;10.30;99.90;;;;;;5104802;28;20201;-44
2023/05/24 03:06:59;;;;;;;29.37;5.43;;;10.30;99.90;;;;;;5092348;28;20217;-47
2023/05/24 03:09:27;;;;;;;17.30;4.87;;;10.30;99.90;;;;;;5103313;28;20193;-43
2023/05/24 03:11:54;;;;;;;28.03;5.27;;;10.30;99.90;;;;;;5079442;28;20347;-45
2023/05/24 03:14:23;;;;;;;18.07;4.57;;;10.30;99.90;;;;;;5096066;28;20267;-44
2023/05/24 03:16:51;;;;;;;13.90;5.03;;;10.30;99.90;;;;;;5089008;28;20205;-47
2023/05/24 03:19:18;;;;;;;25.67;6.00;;;10.30;99.90;;;;;;5099952;28;20200;-43
2023/05/24 03:21:45;;;;;;;25.73;5.57;;;10.30;99.90;;;;;;5096167;28;20231;-45
2023/05/24 03:24:13;;;;;;;21.87;5.20;;;10.30;99.90;;;;;;5099166;28;20217;-45
2023/05/24 03:26:41;;;;;;;32.83;5.13;;;10.40;99.90;;;;;;5076418;28;20212;-44
2023/05/24 03:29:09;;;;;;;25.40;5.63;;;10.40;99.90;;;;;;5092735;28;20185;-44
2023/05/24 03:31:39;;;;;;;24.10;6.07;;;10.40;99.90;;;;;;5103797;28;20197;-48
2023/05/24 03:34:06;;;;;;;21.63;5.17;;;10.30;99.90;;;;;;5100880;28;20205;-44
2023/05/24 03:36:35;;;;;;;26.10;5.63;;;10.30;99.90;;;;;;5102940;28;20250;-47
2023/05/24 03:39:03;;;;;;;21.33;5.47;;;10.30;99.90;;;;;;5086241;28;20217;-46
2023/05/24 03:41:32;;;;;;;17.43;4.83;;;10.30;99.90;;;;;;5075211;28;20809;-48
2023/05/24 03:44:01;;;;;;;25.30;5.40;;;10.30;99.90;;;;;;5097474;28;20225;-44
2023/05/24 03:46:30;;;;;;;15.57;4.97;;;10.30;99.90;;;;;;5101828;28;20272;-47
2023/05/24 03:48:57;;;;;;;30.63;5.37;;;10.40;99.90;;;;;;5101657;28;20270;-44
2023/05/24 03:51:28;;;;;;;22.23;5.67;;;10.40;99.90;;;;;;5100716;28;20304;-45
2023/05/24 03:53:56;;;;;;;25.20;6.43;;;10.40;99.90;;;;;;5089541;28;20221;-45
2023/05/24 03:56:23;;;;;;;22.77;5.30;;;10.30;99.90;;;;;;5065729;28;20210;-46
2023/05/24 03:58:51;;;;;;;27.77;6.20;;;10.30;99.90;;;;;;5103920;28;20193;-48
2023/05/24 04:01:19;;;;;;;20.63;5.73;;;10.30;99.90;;;;;;5097608;28;20193;-47
2023/05/24 04:03:46;;;;;;;20.53;6.30;;;10.30;99.90;;;;;;5102969;28;20224;-44
2023/05/24 04:06:13;;;;;;;27.13;6.07;;;10.30;99.90;;;;;;5091513;28;20200;-45
2023/05/24 04:08:40;;;;;;;22.67;5.60;;;10.30;99.90;;;;;;5095205;28;20293;-47
2023/05/24 04:11:07;;;;;;;29.20;5.43;;;10.30;99.90;;;;;;5071251;28;20205;-45
2023/05/24 04:13:34;;;;;;;20.07;5.63;;;10.30;99.90;;;;;;5099101;28;20706;-45
2023/05/24 04:16:01;;;;;;;29.30;6.53;;;10.30;99.90;;;;;;5100045;28;20708;-45
2023/05/24 04:18:29;;;;;;;20.90;6.30;;;10.30;99.90;;;;;;5100971;28;20189;-46
2023/05/24 04:20:56;;;;;;;25.47;6.10;;;10.30;99.90;;;;;;5087083;28;20917;-45
2023/05/24 04:23:23;;;;;;;26.33;5.80;;;10.30;99.90;;;;;;5069534;28;20488;-44
2023/05/24 04:25:53;;;;;;;24.07;5.53;;;10.30;99.90;;;;;;5086907;28;20623;-44
2023/05/24 04:28:21;;;;;;;22.17;5.53;;;10.30;99.90;;;;;;5081411;28;20185;-44
2023/05/24 04:30:48;;;;;;;21.33;5.63;;;10.30;99.90;;;;;;5103220;28;20553;-44
2023/05/24 04:33:15;;;;;;;29.27;6.53;;;10.30;99.90;;;;;;5098803;28;20189;-45
2023/05/24 04:35:44;;;;;;;21.93;5.63;;;10.20;99.90;;;;;;5091291;28;20201;-43
2023/05/24 04:38:11;;;;;;;28.37;5.57;;;10.20;99.90;;;;;;5086449;28;20233;-45
2023/05/24 04:40:38;;;;;;;21.37;6.13;;;10.20;99.90;;;;;;5090621;28;20209;-44
2023/05/24 04:43:06;;;;;;;22.07;6.00;;;10.30;99.90;;;;;;5080915;28;20213;-45
2023/05/24 04:45:33;;;;;;;21.07;5.63;;;10.30;99.90;;;;;;5094744;28;20280;-45
2023/05/24 04:48:01;;;;;;;23.70;5.87;;;10.30;99.90;;;;;;5100378;28;20208;-45
2023/05/24 04:50:28;;;;;;;24.17;7.27;;;10.30;99.90;;;;;;5088503;28;20205;-44
2023/05/24 04:52:57;;;;;;;21.47;6.23;;;10.40;99.90;;;;;;5078449;28;20204;-45
2023/05/24 04:55:23;;;;;;;16.93;5.00;;;10.40;99.90;;;;;;5092341;28;20225;-44
2023/05/24 04:57:50;;;;;;;28.57;6.77;;;10.30;99.90;;;;;;5075398;28;20201;-48
2023/05/24 05:00:18;;;;;;;22.60;6.37;;;10.40;99.90;;;;;;5086704;28;20740;-48
2023/05/24 05:02:45;;;;;;;26.93;6.23;;;10.40;99.90;;;;;;5096699;28;20225;-44
2023/05/24 05:05:13;;;;;;;24.67;6.17;;;10.40;99.90;;;;;;5095600;28;20217;-46
2023/05/24 05:07:40;;;;;;;27.37;7.00;;;10.40;99.90;;;;;;5092704;28;20202;-45
2023/05/24 05:10:09;;;;;;;15.37;5.03;;;10.40;99.90;;;;;;5099596;28;20271;-48
2023/05/24 05:12:39;;;;;;;22.03;6.20;;;10.50;99.90;;;;;;5088881;28;20209;-45
2023/05/24 05:15:08;;;;;;;28.60;6.00;;;10.50;99.90;;;;;;5080308;28;20299;-48
2023/05/24 05:17:34;;;;;;;25.07;6.20;;;10.50;99.90;;;;;;5092348;28;20628;-47
2023/05/24 05:20:02;;;;;;;25.47;5.97;;;10.50;99.90;;;;;;5097181;28;20187;-44
2023/05/24 05:22:29;;;;;;;19.73;6.37;;;10.60;99.90;;;;;;5086719;28;20209;-45
2023/05/24 05:24:56;;;;;;;23.20;5.70;;;10.60;99.90;;;;;;5091278;28;20221;-45
2023/05/24 05:27:47;;;;;;;19.87;5.83;;;10.70;99.90;;;;;;5093398;28;20315;-45
2023/05/24 05:30:35;;;;;;;19.80;6.17;;;10.70;99.90;;;;;;5073127;28;20216;-46
2023/05/24 05:33:04;;;;;;;22.17;6.50;;;10.70;99.90;;;;;;5085034;28;20201;-44
2023/05/24 05:35:31;;;;;;;22.80;5.83;;;10.80;99.90;;;;;;5098767;28;20193;-44
2023/05/24 05:38:01;;;;;;;22.50;6.30;;;10.80;99.90;;;;;;5086535;28;20202;-45
2023/05/24 05:40:28;;;;;;;22.63;6.23;;;10.90;99.90;;;;;;5096401;28;20197;-45
2023/05/24 05:42:57;;;;;;;21.40;6.47;;;10.90;99.90;;;;;;5089513;28;20284;-48
2023/05/24 05:45:24;;;;;;;24.93;6.73;;;10.90;99.90;;;;;;5068329;28;20214;-45
2023/05/24 05:47:51;;;;;;;22.07;5.60;;;10.90;99.90;;;;;;5088938;28;20205;-46
2023/05/24 05:50:18;;;;;;;30.20;6.57;;;10.80;99.90;;;;;;5105339;28;20582;-46
2023/05/24 05:52:44;;;;;;;26.93;7.80;;;10.90;99.90;;;;;;5090763;28;20213;-46
2023/05/24 05:55:12;;;;;;;25.50;6.17;;;10.90;99.90;;;;;;5084487;28;20295;-44
2023/05/24 05:57:38;;;;;;;30.77;6.00;;;10.80;99.90;;;;;;5098270;28;20618;-47
2023/05/24 06:00:08;;;;;;;23.83;6.10;;;10.90;99.90;;;;;;5062967;28;20209;-45
2023/05/24 06:02:38;;;;;;;24.23;5.90;;;10.80;99.90;;;;;;5090978;28;20614;-46
2023/05/24 06:05:08;;;;;;;20.10;6.20;;;10.80;99.90;;;;;;5097995;28;20282;-45
2023/05/24 06:07:36;;;;;;;22.43;5.90;;;10.80;99.90;;;;;;5089437;28;20241;-45
2023/05/24 06:10:04;;;;;;;26.73;6.33;;;10.80;99.90;;;;;;5093553;28;20213;-45
2023/05/24 06:12:33;;;;;;;29.60;7.07;;;10.90;99.90;;;;;;5099583;28;20193;-45
2023/05/24 06:14:59;;;;;;;26.17;6.73;;;10.90;99.90;;;;;;5082599;28;20265;-46
2023/05/24 06:17:31;;;;;;;24.17;7.07;;;11.00;99.90;;;;;;5083858;28;20672;-45
2023/05/24 06:19:59;;;;;;;19.47;5.87;;;11.00;99.90;;;;;;5076415;28;20229;-44
2023/05/24 06:22:49;;;;;;;33.67;7.53;;;11.00;99.90;;;;;;5096278;28;20220;-45
2023/05/24 06:25:19;;;;;;;28.10;6.40;;;11.10;99.90;;;;;;5092129;28;20312;-46
2023/05/24 06:27:46;;;;;;;25.87;7.47;;;11.20;99.90;;;;;;5090942;28;20223;-44
2023/05/24 06:30:14;;;;;;;29.40;6.93;;;11.20;99.90;;;;;;5087796;27;20282;-44
2023/05/24 06:32:42;;;;;;;28.17;6.17;;;11.20;99.90;;;;;;5085282;28;20205;-44
2023/05/24 06:35:10;;;;;;;25.80;6.33;;;11.30;99.90;;;;;;5095217;28;20213;-43
2023/05/24 06:37:37;;;;;;;31.60;6.67;;;11.40;99.90;;;;;;5105787;28;20212;-45
2023/05/24 06:40:07;;;;;;;24.73;6.53;;;11.40;99.90;;;;;;5085689;28;20194;-46
2023/05/24 06:42:36;;;;;;;23.63;5.80;;;11.50;99.90;;;;;;5094607;28;20206;-44
2023/05/24 06:45:04;;;;;;;46.07;7.53;;;11.50;99.90;;;;;;5092499;28;20587;-47
2023/05/24 06:47:31;;;;;;;16.67;5.70;;;11.50;99.90;;;;;;5081300;28;20220;-47
2023/05/24 06:50:00;;;;;;;29.80;6.13;;;11.50;99.90;;;;;;5078628;28;20547;-44
2023/05/24 06:52:27;;;;;;;26.77;6.77;;;11.60;99.90;;;;;;5088225;28;20516;-46
2023/05/24 06:54:54;;;;;;;20.17;6.03;;;11.60;99.90;;;;;;5076275;28;20221;-46
2023/05/24 06:57:22;;;;;;;23.93;5.87;;;11.60;99.90;;;;;;5077518;28;20206;-45
2023/05/24 06:59:48;;;;;;;25.00;6.47;;;11.60;99.90;;;;;;5088190;28;20320;-48
2023/05/24 07:02:16;;;;;;;21.33;6.60;;;11.60;99.90;;;;;;5100399;28;20189;-44
2023/05/24 07:04:42;;;;;;;24.93;6.13;;;11.60;99.90;;;;;;5077405;28;20225;-46
2023/05/24 07:07:12;;;;;;;24.63;6.27;;;11.60;99.90;;;;;;5087180;28;20190;-45
2023/05/24 07:09:40;;;;;;;17.83;5.33;;;11.60;99.90;;;;;;5065987;28;21851;-48
2023/05/24 07:12:06;;;;;;;18.93;5.33;;;11.60;99.90;;;;;;5096432;28;20322;-46
2023/05/24 07:14:33;;;;;;;22.50;6.23;;;11.60;99.90;;;;;;5094745;28;20923;-45
2023/05/24 07:17:01;;;;;;;19.63;6.00;;;11.70;99.90;;;;;;5094447;28;20710;-44
2023/05/24 07:19:28;;;;;;;19.10;5.60;;;11.70;99.90;;;;;;5071311;28;20209;-45
2023/05/24 07:21:55;;;;;;;32.57;7.30;;;11.70;99.90;;;;;;5091735;28;20193;-44
2023/05/24 07:24:23;;;;;;;27.30;6.00;;;11.80;99.90;;;;;;5081641;27;20622;-44
2023/05/24 07:26:50;;;;;;;22.23;5.73;;;11.80;99.90;;;;;;5099113;28;20198;-44
2023/05/24 07:29:17;;;;;;;24.93;5.70;;;11.90;99.90;;;;;;5083904;28;20200;-46
2023/05/24 07:31:43;;;;;;;16.67;5.57;;;11.90;99.90;;;;;;5083376;28;20213;-44
2023/05/24 07:34:10;;;;;;;22.50;6.13;;;11.90;99.90;;;;;;5079799;28;20714;-46
2023/05/24 07:36:37;;;;;;;25.13;5.77;;;11.90;99.90;;;;;;5086470;28;20190;-46
2023/05/24 07:39:05;;;;;;;20.83;5.30;;;11.90;99.90;;;;;;5087455;28;20282;-45
2023/05/24 07:41:33;;;;;;;27.93;5.23;;;11.90;99.90;;;;;;5082942;28;20206;-44
2023/05/24 07:44:00;;;;;;;21.37;5.57;;;12.00;99.90;;;;;;5095464;28;20617;-48
2023/05/24 07:46:26;;;;;;;23.37;5.77;;;12.00;99.90;;;;;;5092661;28;20206;-46
2023/05/24 07:48:53;;;;;;;19.80;6.30;;;12.00;99.90;;;;;;5076263;28;20216;-46
2023/05/24 07:51:21;;;;;;;21.40;5.33;;;12.00;99.90;;;;;;5094772;28;20871;-47
2023/05/24 07:53:48;;;;;;;19.07;6.17;;;12.00;99.90;;;;;;5094321;28;22525;-48
2023/05/24 07:56:15;;;;;;;19.83;5.83;;;12.00;99.90;;;;;;5093286;28;20667;-47
2023/05/24 07:58:45;;;;;;;22.57;5.90;;;12.00;99.90;;;;;;5082840;28;20205;-46
2023/05/24 08:01:12;;;;;;;23.43;5.57;;;12.00;99.90;;;;;;5099769;28;20201;-45
2023/05/24 08:03:39;;;;;;;19.30;5.77;;;12.10;99.90;;;;;;5061243;28;20252;-47
2023/05/24 08:06:07;;;;;;;25.63;6.63;;;12.20;99.90;;;;;;5095309;28;20271;-48
2023/05/24 08:08:34;;;;;;;21.50;5.20;;;12.30;99.90;;;;;;5096379;28;20838;-46
2023/05/24 08:11:01;;;;;;;21.10;5.10;;;12.30;99.90;;;;;;5093549;28;20201;-48
2023/05/24 08:13:28;;;;;;;22.17;5.27;;;12.40;99.90;;;;;;5092699;28;20220;-43
2023/05/24 08:15:57;;;;;;;28.17;6.70;;;12.50;99.90;;;;;;5082439;28;20201;-45
2023/05/24 08:18:23;;;;;;;18.30;4.97;;;12.50;99.90;;;;;;5068024;28;20194;-43
2023/05/24 08:20:51;;;;;;;20.17;5.37;;;12.50;99.90;;;;;;5084599;28;20185;-48
2023/05/24 08:23:17;;;;;;;20.00;5.43;;;12.60;99.90;;;;;;5098805;28;20246;-45
2023/05/24 08:25:44;;;;;;;24.53;6.30;;;12.50;99.90;;;;;;5091497;28;20220;-43
2023/05/24 08:28:11;;;;;;;19.57;4.97;;;12.50;99.90;;;;;;5094198;28;20202;-44
2023/05/24 08:30:38;;;;;;;17.03;6.00;;;12.50;99.90;;;;;;5085532;28;21368;-45
2023/05/24 08:33:06;;;;;;;22.63;6.50;;;12.50;99.90;;;;;;5083623;28;20198;-48
2023/05/24 08:35:34;;;;;;;23.40;6.23;;;12.50;99.90;;;;;;5074025;28;20221;-48
2023/05/24 08:38:01;;;;;;;21.33;5.47;;;12.60;99.90;;;;;;5096282;28;20205;-47
2023/05/24 08:40:28;;;;;;;16.93;5.67;;;12.60;99.90;;;;;;5088358;28;20194;-43
2023/05/24 08:42:58;;;;;;;19.67;5.37;;;12.60;99.90;;;;;;5090837;28;20209;-47
2023/05/24 08:45:28;;;;;;;29.17;5.83;;;12.70;99.90;;;;;;5084324;28;20943;-44
2023/05/24 08:47:57;;;;;;;14.23;5.00;;;12.80;99.90;;;;;;5083547;28;20213;-49
2023/05/24 08:50:27;;;;;;;19.73;4.70;;;12.90;99.90;;;;;;5073180;28;20206;-44
2023/05/24 08:52:55;;;;;;;8.27;4.63;;;13.10;99.90;;;;;;5096367;28;20193;-44
2023/05/24 08:55:22;;;;;;;17.07;4.77;;;13.20;99.90;;;;;;5088509;28;20221;-44
2023/05/24 08:57:50;;;;;;;18.30;4.77;;;13.30;99.90;;;;;;5081894;28;20344;-46
2023/05/24 09:00:18;;;;;;;13.00;3.43;;;13.50;99.90;;;;;;5082495;28;20269;-47
2023/05/24 09:02:45;;;;;;;14.50;3.80;;;13.60;99.90;;;;;;5089803;28;20193;-46
2023/05/24 09:05:15;;;;;;;7.17;3.63;;;13.80;99.90;;;;;;5092941;28;20241;-47
2023/05/24 09:07:44;;;;;;;14.23;4.37;;;13.90;99.90;;;;;;5078760;28;20205;-49
2023/05/24 09:10:12;;;;;;;15.60;4.03;;;14.00;99.90;;;;;;5096513;28;20682;-47
2023/05/24 09:12:43;;;;;;;12.07;4.30;;;14.10;99.90;;;;;;5076120;28;20239;-45
2023/05/24 09:15:10;;;;;;;18.37;4.50;;;14.10;99.90;;;;;;5090253;28;20221;-47
2023/05/24 09:17:39;;;;;;;15.23;4.27;;;14.10;99.90;;;;;;5090647;28;20209;-45
2023/05/24 09:20:07;;;;;;;12.53;3.87;;;14.00;99.90;;;;;;5091617;28;20254;-47
2023/05/24 09:22:36;;;;;;;9.70;3.77;;;13.90;99.90;;;;;;5076432;28;20193;-46
2023/05/24 09:25:06;;;;;;;11.63;4.80;;;13.90;99.90;;;;;;5097064;28;20221;-45
2023/05/24 09:27:35;;;;;;;9.27;3.93;;;13.80;99.90;;;;;;5074531;28;20207;-43
2023/05/24 09:30:03;;;;;;;15.70;4.83;;;13.80;99.90;;;;;;5091849;28;20208;-43
2023/05/24 09:32:31;;;;;;;13.63;4.17;;;13.80;99.90;;;;;;5089317;28;20553;-44
2023/05/24 09:34:58;;;;;;;14.17;4.43;;;13.90;99.90;;;;;;5080749;28;20285;-43
2023/05/24 09:37:28;;;;;;;10.93;3.97;;;13.80;99.90;;;;;;5076167;28;20288;-43
2023/05/24 09:39:56;;;;;;;17.93;4.97;;;13.80;99.90;;;;;;5087285;28;20208;-47
2023/05/24 09:42:27;;;;;;;12.70;4.50;;;13.90;99.90;;;;;;5084598;28;20197;-43
2023/05/24 09:45:01;;;;;;;17.43;4.63;;;13.90;99.90;;;;;;5091250;28;20757;-47
2023/05/24 09:47:29;;;;;;;12.53;4.80;;;13.90;99.90;;;;;;5095168;28;20694;-42
2023/05/24 09:49:56;;;;;;;10.50;3.87;;;13.90;99.90;;;;;;5085180;28;20202;-46
2023/05/24 09:52:23;;;;;;;10.47;4.47;;;14.00;99.90;;;;;;5092514;28;20193;-42
2023/05/24 09:54:51;;;;;;;14.47;4.10;;;14.00;99.90;;;;;;5072194;28;20213;-44
2023/05/24 09:57:17;;;;;;;14.37;4.73;;;14.00;99.90;;;;;;5097177;28;20205;-45
2023/05/24 09:59:46;;;;;;;11.60;4.03;;;14.10;99.90;;;;;;5088647;28;20209;-45
2023/05/24 10:02:13;;;;;;;12.23;5.73;;;14.10;99.90;;;;;;5099066;28;20246;-42
2023/05/24 10:04:40;;;;;;;18.47;5.07;;;14.20;99.90;;;;;;5081238;28;21665;-44
2023/05/24 10:07:07;;;;;;;16.57;4.60;;;14.20;99.90;;;;;;5091450;28;20194;-43
2023/05/24 10:09:35;;;;;;;15.83;3.73;;;14.30;99.90;;;;;;5068964;28;20902;-46
2023/05/24 10:12:04;;;;;;;10.73;3.43;;;14.30;99.90;;;;;;5103109;28;20329;-47
2023/05/24 10:14:33;;;;;;;12.20;3.90;;;14.50;99.90;;;;;;5078806;28;20311;-46
2023/05/24 10:17:02;;;;;;;8.73;3.43;;;14.60;99.90;;;;;;5090689;28;20198;-43
2023/05/24 10:19:29;;;;;;;13.00;3.73;;;14.60;99.90;;;;;;5086367;28;20198;-46
2023/05/24 10:21:57;;;;;;;8.70;3.00;;;14.60;99.90;;;;;;5089831;28;20220;-44
2023/05/24 10:24:29;;;;;;;10.67;3.73;;;14.60;99.90;;;;;;5097840;28;20228;-46
2023/05/24 10:26:57;;;;;;;9.73;4.40;;;14.80;99.90;;;;;;5073824;28;20205;-44
2023/05/24 10:29:32;;;;;;;10.47;3.10;;;14.80;99.90;;;;;;5092418;28;20320;-44
2023/05/24 10:32:02;;;;;;;14.83;4.57;;;14.90;99.90;;;;;;5077152;28;20859;-43
2023/05/24 10:34:29;;;;;;;13.33;4.53;;;14.90;99.90;;;;;;5096343;28;20208;-43
2023/05/24 10:36:58;;;;;;;12.27;4.10;;;14.90;99.90;;;;;;5071962;28;20210;-43
2023/05/24 10:39:25;;;;;;;8.70;3.70;;;14.90;99.90;;;;;;5092540;28;20174;-44
2023/05/24 10:41:55;;;;;;;8.50;3.77;;;15.00;99.90;;;;;;5078606;28;20201;-43
2023/05/24 10:44:28;;;;;;;11.83;4.50;;;15.00;99.90;;;;;;5101882;28;20288;-44
2023/05/24 10:47:11;;;;;;;9.50;3.40;;;15.20;99.90;;;;;;5079875;28;20257;-44
2023/05/24 10:49:39;;;;;;;9.17;3.83;;;15.30;99.90;;;;;;5087574;28;20722;-43
2023/05/24 10:52:10;;;;;;;10.77;3.97;;;15.40;99.90;;;;;;5080860;28;20209;-43
2023/05/24 10:54:37;;;;;;;7.37;3.27;;;15.40;99.90;;;;;;5102937;28;20719;-44
2023/05/24 10:57:06;;;;;;;7.53;3.27;;;;;;;;;;5075263;28;20288;-45
2023/05/24 10:59:36;;;;;;;8.43;3.57;;;15.70;99.90;;;;;;5098848;28;20194;-44
2023/05/24 11:02:05;;;;;;;7.67;3.10;;;15.80;99.90;;;;;;5077275;28;20277;-43
2023/05/24 11:04:38;;;;;;;8.40;3.43;;;15.70;99.90;;;;;;5090977;28;20716;-43
2023/05/24 11:07:08;;;;;;;6.73;2.90;;;15.60;99.90;;;;;;5082476;28;20310;-43
2023/05/24 11:09:35;;;;;;;6.97;3.10;;;15.50;99.90;;;;;;5095556;28;20202;-44
2023/05/24 11:12:06;;;;;;;11.93;3.27;;;15.40;99.90;;;;;;5084618;28;20193;-46
2023/05/24 11:14:37;;;;;;;10.67;3.50;;;15.40;99.90;;;;;;5077319;28;20230;-42
2023/05/24 11:17:04;;;;;;;9.73;3.30;;;15.40;99.90;;;;;;5081154;28;20197;-44
2023/05/24 11:19:34;;;;;;;6.17;3.00;;;15.50;99.90;;;;;;5084230;28;20276;-44
2023/05/24 11:22:06;;;;;;;11.13;3.20;;;15.40;99.90;;;;;;5094104;28;20220;-44
2023/05/24 11:24:34;;;;;;;8.87;3.30;;;15.50;99.90;;;;;;5072234;28;20229;-43
2023/05/24 11:27:02;;;;;;;8.90;3.30;;;15.50;99.90;;;;;;5094755;28;20274;-43
2023/05/24 11:29:29;;;;;;;11.77;3.53;;;15.60;99.90;;;;;;5072832;28;20209;-43
2023/05/24 11:32:02;;;;;;;9.50;3.47;;;15.70;99.90;;;;;;5075249;28;20238;-46
2023/05/24 11:34:30;;;;;;;12.00;3.57;;;15.80;99.90;;;;;;5086009;28;20686;-45
2023/05/24 11:36:59;;;;;;;8.27;2.93;;;16.00;99.90;;;;;;5086770;28;20212;-43
2023/05/24 11:39:31;;;;;;;12.63;3.30;;;16.00;99.90;;;;;;5087188;28;20737;-43
2023/05/24 11:42:00;;;;;;;10.10;3.30;;;;;;;;;;5101637;28;20204;-50
2023/05/24 11:44:30;;;;;;;8.57;3.00;;;16.20;99.90;;;;;;5051773;28;20253;-45
2023/05/24 11:46:57;;;;;;;9.93;3.90;;;16.30;99.90;;;;;;5094781;28;20695;-44
2023/05/24 11:49:24;;;;;;;10.70;2.93;;;16.20;99.90;;;;;;5067962;28;20215;-44
2023/05/24 11:51:54;;;;;;;7.60;3.20;;;16.10;99.90;;;;;;5098005;28;20900;-46
2023/05/24 11:54:21;;;;;;;8.43;3.20;;;16.00;99.90;;;;;;5072776;28;20213;-43
2023/05/24 11:56:49;;;;;;;8.07;3.87;;;15.90;99.90;;;;;;5097215;28;20201;-48
2023/05/24 11:59:17;;;;;;;10.03;3.23;;;15.90;99.90;;;;;;5060397;28;20202;-46
2023/05/24 12:01:44;;;;;;;6.67;3.40;;;15.80;99.90;;;;;;5098423;28;20250;-44
2023/05/24 12:04:11;;;;;;;9.67;3.73;;;15.70;99.90;;;;;;5070734;28;20221;-42
2023/05/24 12:06:39;;;;;;;12.23;4.57;;;15.70;99.90;;;;;;5094432;28;20227;-43
2023/05/24 12:09:09;;;;;;;10.67;3.43;;;15.70;99.90;;;;;;5083970;28;20194;-43
2023/05/24 12:11:40;;;;;;;6.67;2.97;;;15.70;99.90;;;;;;5086459;28;20238;-43
2023/05/24 12:14:12;;;;;;;6.10;3.30;;;15.80;99.90;;;;;;5072710;28;20287;-46
2023/05/24 12:16:39;;;;;;;5.57;2.80;;;15.80;99.90;;;;;;5099386;28;20197;-45
2023/05/24 12:19:06;;;;;;;6.60;2.80;;;15.80;99.90;;;;;;5083729;28;20595;-45
2023/05/24 12:21:33;;;;;;;7.87;3.07;;;15.80;99.90;;;;;;5087975;28;21269;-45
2023/05/24 12:24:10;;;;;;;9.40;3.27;;;15.90;99.90;;;;;;5078364;28;20296;-43
2023/05/24 12:26:40;;;;;;;8.03;3.20;;;16.00;99.90;;;;;;5076327;28;20224;-46
2023/05/24 12:29:10;;;;;;;9.77;3.23;;;16.00;99.90;;;;;;5087600;28;20186;-45
2023/05/24 12:31:37;;;;;;;10.17;3.50;;;16.00;99.90;;;;;;5082313;28;20217;-46
2023/05/24 12:34:06;;;;;;;6.23;3.13;;;16.10;99.90;;;;;;5082394;28;20224;-43
2023/05/24 12:36:35;;;;;;;6.03;3.40;;;16.10;99.90;;;;;;5074679;28;20233;-48
2023/05/24 12:39:16;;;;;;;6.53;2.87;;;16.20;99.90;;;;;;5093230;28;20560;-43
2023/05/24 12:41:42;;;;;;;8.33;3.07;;;16.10;99.90;;;;;;5083182;28;20296;-43
2023/05/24 12:44:12;;;;;;;6.33;3.10;;;16.10;99.90;;;;;;5100315;28;20213;-47
2023/05/24 12:46:39;;;;;;;4.37;2.97;;;16.10;99.90;;;;;;5082269;28;20209;-45